Time;durP1;ratioP1;P1;durP2;ratioP2;P2;SDS_P1;SDS_P2;PMS_P1;PMS_P2;Temp;Humidity;BMP_temperature;BMP_pressure;BME280_temperature;BME280_humidity;BME280_pressure;Samples;Min_cycle;Max_cycle;Signal;HPM_P1;HPM_P2
2022/03/30 00:01:34;;;;;;;44.27;23.77;;;;;;;8.45;67.05;98930.38;1734919;82;21038;-70
2022/03/30 00:04:01;;;;;;;46.35;24.82;;;;;;;8.61;66.80;98926.09;1734576;82;21053;-69
2022/03/30 00:06:28;;;;;;;41.83;24.07;;;;;;;8.79;66.11;98925.66;1734422;82;21508;-68
2022/03/30 00:08:54;;;;;;;45.50;25.23;;;;;;;8.82;65.90;98926.81;1734501;82;21034;-70
2022/03/30 00:11:22;;;;;;;45.58;24.85;;;;;;;8.70;66.15;98923.95;1734256;82;21042;-68
2022/03/30 00:13:49;;;;;;;48.50;25.15;;;;;;;8.59;66.59;98921.84;1734088;82;21137;-69
2022/03/30 00:16:16;;;;;;;45.00;24.50;;;;;;;8.50;66.96;98920.50;1734316;82;21034;-69
2022/03/30 00:18:43;;;;;;;43.30;23.73;;;;;;;8.59;66.92;98927.09;1734351;82;21101;-69
2022/03/30 00:21:11;;;;;;;41.55;23.02;;;;;;;8.68;66.59;98928.42;1734406;82;21073;-70
2022/03/30 00:23:38;;;;;;;50.03;24.87;;;;;;;8.82;66.14;98928.59;1734313;82;21151;-70
2022/03/30 00:26:05;;;;;;;43.63;24.95;;;;;;;8.86;66.10;98932.78;1734169;82;21094;-69
2022/03/30 00:28:32;;;;;;;43.58;23.65;;;;;;;8.75;66.29;98930.67;1734240;82;21124;-69
2022/03/30 00:30:58;;;;;;;51.15;25.17;;;;;;;8.69;66.21;98927.48;1734169;82;22940;-69
2022/03/30 00:33:26;;;;;;;42.93;23.32;;;;;;;8.70;66.54;98931.83;1734256;82;21010;-70
2022/03/30 00:35:52;;;;;;;50.03;25.80;;;;;;;8.61;66.84;98918.22;1734187;82;21281;-70
2022/03/30 00:38:19;;;;;;;47.78;23.92;;;;;;;8.67;66.74;98914.90;1734126;82;21042;-69
2022/03/30 00:40:46;;;;;;;47.78;25.57;;;;;;;8.63;66.87;98921.21;1734173;82;21070;-69
2022/03/30 00:43:13;;;;;;;46.25;25.72;;;;;;;8.56;67.37;98914.97;1734181;82;21035;-68
2022/03/30 00:45:41;;;;;;;45.00;25.52;;;;;;;8.44;67.71;98922.09;1734415;82;21093;-68
2022/03/30 00:48:08;;;;;;;50.60;25.65;;;;;;;8.58;67.84;98914.88;1734266;82;21230;-70
2022/03/30 00:50:36;;;;;;;51.70;25.17;;;;;;;8.46;68.12;98920.72;1734252;82;21014;-69
2022/03/30 00:53:02;;;;;;;50.28;26.17;;;;;;;8.44;68.14;98919.47;1734253;81;21122;-69
2022/03/30 00:55:31;;;;;;;49.58;26.50;;;;;;;8.48;68.00;98924.97;1734123;82;21104;-68
2022/03/30 00:57:58;;;;;;;54.53;26.85;;;;;;;8.60;68.01;98927.02;1734128;82;21069;-69
2022/03/30 01:00:25;;;;;;;47.85;26.35;;;;;;;8.40;68.27;98917.47;1734136;82;21237;-70
2022/03/30 01:02:52;;;;;;;49.67;25.68;;;;;;;8.23;68.60;98911.28;1734066;82;21066;-70
2022/03/30 01:05:19;;;;;;;42.80;24.30;;;;;;;8.19;68.90;98914.06;1734203;82;21070;-70
2022/03/30 01:07:47;;;;;;;50.98;25.50;;;;;;;8.32;68.60;98910.84;1734090;82;21490;-68
2022/03/30 01:10:16;;;;;;;51.23;25.30;;;;;;;8.51;67.81;98905.60;1734281;82;21589;-69
2022/03/30 01:12:45;;;;;;;50.58;25.57;;;;;;;8.71;67.05;98904.64;1734460;82;21061;-69
2022/03/30 01:15:13;;;;;;;44.67;23.75;;;;;;;8.77;66.72;98912.23;1734139;82;21015;-69
2022/03/30 01:17:40;;;;;;;46.90;24.85;;;;;;;8.78;66.64;98909.98;1734389;82;21058;-70
2022/03/30 01:20:10;;;;;;;42.40;23.05;;;;;;;8.79;66.63;98909.07;1734171;82;21058;-68
2022/03/30 01:22:39;;;;;;;48.60;24.07;;;;;;;8.80;66.44;98909.44;1734514;82;21969;-70
2022/03/30 01:25:07;;;;;;;40.80;24.10;;;;;;;8.88;66.48;98909.92;1734100;82;21219;-69
2022/03/30 01:27:34;;;;;;;47.27;24.18;;;;;;;8.78;66.61;98903.41;1734276;82;21045;-69
2022/03/30 01:33:05;;;;;;;45.58;23.10;;;;;;;8.78;66.91;98908.66;1734070;82;21081;-68
2022/03/30 01:35:32;;;;;;;48.33;23.83;;;;;;;8.84;66.72;98909.69;1734009;82;22118;-69
2022/03/30 01:38:00;;;;;;;42.58;23.50;;;;;;;8.97;66.24;98914.72;1734178;82;21226;-69
2022/03/30 01:40:28;;;;;;;42.03;21.82;;;;;;;9.10;65.58;98917.56;1734160;82;21038;-68
2022/03/30 01:42:54;;;;;;;42.62;22.95;;;;;;;9.22;65.08;98921.34;1734014;82;21034;-69
2022/03/30 01:45:22;;;;;;;42.67;21.95;;;;;;;9.31;64.91;98919.56;1734090;82;21028;-68
2022/03/30 01:47:57;;;;;;;44.27;22.35;;;;;;;9.27;64.89;98916.73;1734197;82;21034;-68
2022/03/30 01:50:27;;;;;;;43.25;23.10;;;;;;;9.27;64.93;98921.11;1718353;82;22066;-69
2022/03/30 01:52:53;;;;;;;49.18;23.45;;;;;;;9.14;65.40;98920.44;1713298;83;21053;-69
2022/03/30 01:55:20;;;;;;;43.80;23.52;;;;;;;8.98;66.29;98910.31;1718374;83;21033;-68
2022/03/30 01:57:47;;;;;;;40.38;22.50;;;;;;;8.64;67.56;98903.25;1718060;83;21556;-69
2022/03/30 02:00:15;;;;;;;43.52;22.93;;;;;;;8.36;68.61;98904.54;1718485;83;21594;-69
2022/03/30 02:02:43;;;;;;;41.05;22.27;;;;;;;8.19;69.39;98904.03;1718316;83;21203;-68
2022/03/30 02:05:10;;;;;;;42.93;22.98;;;;;;;8.18;69.83;98903.16;1717917;83;21046;-70
2022/03/30 02:07:38;;;;;;;48.20;24.30;;;;;;;8.13;70.06;98905.16;1718029;83;21607;-69
2022/03/30 02:10:08;;;;;;;47.45;25.02;;;;;;;8.08;70.39;98908.46;1717928;83;21065;-69
2022/03/30 02:12:36;;;;;;;45.40;24.72;;;;;;;7.97;70.86;98904.16;1718158;83;21061;-69
2022/03/30 02:15:07;;;;;;;50.33;25.08;;;;;;;7.87;71.48;98900.28;1717935;83;21064;-69
2022/03/30 02:17:35;;;;;;;40.63;22.02;;;;;;;7.74;71.87;98902.13;1717962;83;21029;-70
2022/03/30 02:20:04;;;;;;;38.65;21.68;;;;;;;7.78;71.85;98902.38;1718204;83;21129;-69
2022/03/30 02:22:30;;;;;;;48.70;23.95;;;;;;;8.02;71.16;98898.24;1718364;83;21518;-68
2022/03/30 02:24:57;;;;;;;44.67;22.90;;;;;;;8.09;71.45;98902.28;1718398;83;21021;-69
2022/03/30 02:27:25;;;;;;;42.65;23.30;;;;;;;7.90;71.70;98896.20;1718363;83;21046;-69
2022/03/30 02:29:54;;;;;;;47.17;23.10;;;;;;;7.71;72.35;98896.19;1718317;83;21025;-69
2022/03/30 02:32:21;;;;;;;43.30;23.15;;;;;;;7.63;72.61;98896.52;1718311;83;21049;-69
2022/03/30 02:34:48;;;;;;;41.60;22.07;;;;;;;7.68;72.88;98890.59;1718256;83;21089;-69
2022/03/30 02:37:14;;;;;;;43.78;23.52;;;;;;;7.66;73.00;98895.08;1718174;83;21592;-70
2022/03/30 02:39:42;;;;;;;41.55;23.02;;;;;;;7.81;72.67;98896.61;1718203;83;21254;-69
2022/03/30 02:42:08;;;;;;;38.90;22.58;;;;;;;8.03;71.29;98893.41;1717972;83;21129;-70
2022/03/30 02:44:37;;;;;;;39.33;22.85;;;;;;;8.26;70.62;98908.50;1718232;83;21023;-70
2022/03/30 02:47:05;;;;;;;40.20;22.55;;;;;;;8.45;69.82;98893.64;1718102;83;21065;-68
2022/03/30 02:49:33;;;;;;;39.73;20.92;;;;;;;8.47;69.14;98894.89;1723862;82;21092;-69
2022/03/30 02:52:03;;;;;;;41.98;22.20;;;;;;;8.59;68.50;98889.88;1747990;81;21281;-69
2022/03/30 02:54:30;;;;;;;41.92;21.00;;;;;;;8.77;68.37;98889.92;1748136;82;21109;-68
2022/03/30 02:56:57;;;;;;;42.23;22.80;;;;;;;8.72;67.79;98885.33;1748034;81;21013;-69
2022/03/30 02:59:24;;;;;;;41.05;22.48;;;;;;;8.77;67.92;98885.98;1747998;82;21105;-69
2022/03/30 03:01:51;;;;;;;42.25;21.95;;;;;;;8.53;68.56;98877.52;1747878;81;21035;-69
2022/03/30 03:04:19;;;;;;;43.52;21.97;;;;;;;8.35;69.09;98877.47;1747866;82;21245;-70
2022/03/30 03:06:46;;;;;;;41.02;22.85;;;;;;;8.46;68.83;98865.16;1747683;81;21010;-69
2022/03/30 03:09:12;;;;;;;41.95;21.40;;;;;;;8.57;68.86;98868.11;1747723;81;21139;-69
2022/03/30 03:11:39;;;;;;;36.70;21.27;;;;;;;8.53;68.35;98867.86;1747839;81;20994;-69
2022/03/30 03:14:07;;;;;;;41.10;21.93;;;;;;;8.70;68.03;98871.46;1747962;81;21045;-68
2022/03/30 03:16:34;;;;;;;42.55;21.65;;;;;;;8.78;68.02;98865.35;1747666;82;21690;-69
2022/03/30 03:19:03;;;;;;;39.92;22.50;;;;;;;8.79;67.59;98869.70;1747782;82;21128;-70
2022/03/30 03:21:30;;;;;;;40.75;21.17;;;;;;;8.89;66.84;98872.23;1748388;81;21057;-68
2022/03/30 03:23:56;;;;;;;36.68;21.37;;;;;;;9.02;66.17;98875.10;1748065;82;21546;-69
2022/03/30 03:26:23;;;;;;;43.50;22.00;;;;;;;9.06;65.83;98873.16;1747900;82;21732;-69
2022/03/30 03:28:50;;;;;;;36.77;20.23;;;;;;;9.00;65.55;98868.60;1747941;82;21890;-69
2022/03/30 03:31:17;;;;;;;43.73;22.27;;;;;;;8.95;65.62;98872.37;1747849;81;21089;-70
2022/03/30 03:33:44;;;;;;;37.98;21.02;;;;;;;8.81;66.00;98875.69;1748013;82;22164;-69
2022/03/30 03:36:10;;;;;;;39.88;20.75;;;;;;;8.48;66.75;98880.36;1747858;82;21581;-68
2022/03/30 03:38:38;;;;;;;40.33;21.23;;;;;;;8.38;67.21;98895.67;1748032;82;21116;-69
2022/03/30 03:41:06;;;;;;;39.78;21.30;;;;;;;8.45;67.30;98888.39;1748096;82;21574;-69
2022/03/30 03:43:34;;;;;;;38.73;20.52;;;;;;;8.23;68.05;98890.30;1748078;82;21061;-69
2022/03/30 03:46:01;;;;;;;43.90;21.25;;;;;;;7.88;69.39;98901.50;1748078;82;21021;-68
2022/03/30 03:48:27;;;;;;;40.73;20.75;;;;;;;7.56;70.59;98892.47;1748047;82;22169;-69
2022/03/30 03:50:54;;;;;;;39.00;20.82;;;;;;;7.37;71.50;98894.20;1726101;81;21061;-70
2022/03/30 03:53:21;;;;;;;39.03;21.27;;;;;;;7.25;72.36;98898.21;1710981;83;21147;-69
2022/03/30 03:55:48;;;;;;;34.25;19.50;;;;;;;7.29;72.81;98893.20;1704717;83;22106;-68
2022/03/30 03:58:15;;;;;;;41.53;19.77;;;;;;;7.30;72.82;98895.77;1704768;83;21629;-70
2022/03/30 04:00:41;;;;;;;34.30;19.62;;;;;;;7.39;72.87;98904.16;1704931;84;21110;-69
2022/03/30 04:03:08;;;;;;;38.60;20.30;;;;;;;7.65;72.19;98899.92;1704593;83;21101;-69
2022/03/30 04:05:35;;;;;;;37.95;20.37;;;;;;;7.94;71.12;98897.77;1704803;83;21239;-71
2022/03/30 04:08:02;;;;;;;34.08;19.02;;;;;;;7.96;70.66;98903.79;1704706;83;21522;-69
2022/03/30 04:10:30;;;;;;;37.78;19.70;;;;;;;7.76;71.16;98904.22;1704805;84;21067;-69
2022/03/30 04:12:57;;;;;;;35.05;19.40;;;;;;;7.59;71.79;98910.66;1704929;84;21503;-69
2022/03/30 04:15:23;;;;;;;38.33;19.10;;;;;;;7.45;72.52;98915.66;1704793;83;21053;-69
2022/03/30 04:17:52;;;;;;;32.00;17.98;;;;;;;7.57;72.61;98920.39;1704796;83;21003;-69
2022/03/30 04:20:19;;;;;;;34.53;18.95;;;;;;;7.91;71.89;98921.47;1705030;84;21050;-69
2022/03/30 04:22:47;;;;;;;31.42;18.25;;;;;;;8.16;70.91;98924.67;1704789;83;21046;-70
2022/03/30 04:25:14;;;;;;;32.40;19.35;;;;;;;8.29;70.05;98924.12;1704959;83;20999;-69
2022/03/30 04:27:51;;;;;;;34.05;18.05;;;;;;;8.30;69.72;98921.87;1704771;84;21095;-69
2022/03/30 04:30:19;;;;;;;34.90;18.12;;;;;;;8.31;69.73;98926.21;1704961;84;21245;-68
2022/03/30 04:32:46;;;;;;;30.88;17.37;;;;;;;8.41;69.39;98932.75;1704972;84;21033;-70
2022/03/30 04:35:14;;;;;;;29.57;16.02;;;;;;;8.45;68.63;98936.93;1704842;83;21141;-69
2022/03/30 04:37:41;;;;;;;36.65;18.62;;;;;;;8.64;68.04;98941.30;1704811;84;20987;-69
2022/03/30 04:40:10;;;;;;;34.33;16.97;;;;;;;8.77;67.65;98946.36;1704809;83;21034;-69
2022/03/30 04:42:37;;;;;;;30.17;16.37;;;;;;;8.90;66.84;98949.22;1705251;84;21092;-68
2022/03/30 04:45:05;;;;;;;35.65;18.73;;;;;;;9.21;65.70;98955.97;1704836;84;21098;-68
2022/03/30 04:47:32;;;;;;;30.57;17.52;;;;;;;9.49;64.73;98953.73;1705284;84;21554;-69
2022/03/30 04:49:59;;;;;;;35.20;20.12;;;;;;;9.66;64.11;98965.52;1715500;82;21081;-70
2022/03/30 04:52:26;;;;;;;35.60;17.17;;;;;;;9.75;64.05;98967.66;1734256;82;21050;-69
2022/03/30 04:54:53;;;;;;;36.95;17.50;;;;;;;9.61;63.76;98976.73;1748356;82;21130;-70
2022/03/30 04:57:20;;;;;;;29.90;17.37;;;;;;;9.51;64.42;98971.58;1748147;82;21426;-69
2022/03/30 04:59:47;;;;;;;30.75;16.70;;;;;;;9.44;64.64;98971.88;1748168;81;21049;-70
2022/03/30 05:02:14;;;;;;;32.60;15.78;;;;;;;9.24;64.76;98974.19;1748013;82;20994;-69
2022/03/30 05:04:40;;;;;;;29.18;15.63;;;;;;;9.20;65.13;98967.85;1748231;82;21032;-69
2022/03/30 05:07:07;;;;;;;28.10;14.35;;;;;;;9.26;64.79;98971.50;1748084;82;21219;-69
2022/03/30 05:09:34;;;;;;;31.45;16.55;;;;;;;9.39;63.77;98968.65;1748328;82;21050;-69
2022/03/30 05:12:02;;;;;;;28.95;17.00;;;;;;;9.67;62.60;98969.86;1748260;82;21081;-70
2022/03/30 05:14:29;;;;;;;29.37;16.55;;;;;;;9.96;62.15;98974.05;1748133;82;21104;-69
2022/03/30 05:16:55;;;;;;;33.08;17.23;;;;;;;10.11;61.64;98971.92;1720578;82;21577;-71
2022/03/30 05:19:22;;;;;;;29.57;17.00;;;;;;;10.27;61.22;98974.11;1748427;82;21144;-69
2022/03/30 05:21:50;;;;;;;30.20;16.97;;;;;;;10.41;61.01;98975.18;1748320;82;21061;-70
2022/03/30 05:24:17;;;;;;;24.23;14.87;;;;;;;10.49;60.20;98972.52;1748508;82;21081;-69
2022/03/30 05:26:44;;;;;;;27.37;15.23;;;;;;;10.62;59.50;98968.72;1748243;82;21092;-69
2022/03/30 05:29:11;;;;;;;27.80;16.90;;;;;;;10.74;58.54;98966.34;1748371;82;21038;-70
2022/03/30 05:31:38;;;;;;;38.15;18.55;;;;;;;10.91;58.27;98964.93;1748210;82;21206;-69
2022/03/30 05:34:05;;;;;;;33.67;19.17;;;;;;;10.99;57.94;98970.59;1748277;82;21061;-68
2022/03/30 05:36:31;;;;;;;33.28;18.37;;;;;;;11.07;57.49;98971.02;1748016;82;21049;-70
2022/03/30 05:38:58;;;;;;;32.90;18.65;;;;;;;11.19;57.11;98977.36;1748058;82;21037;-70
2022/03/30 05:41:24;;;;;;;31.75;17.98;;;;;;;11.26;56.72;98976.06;1748280;82;21041;-68
2022/03/30 05:43:51;;;;;;;26.25;14.55;;;;;;;11.30;56.50;98974.11;1747963;82;21240;-71
2022/03/30 05:46:18;;;;;;;30.60;17.52;;;;;;;11.28;56.00;98976.83;1748012;82;21533;-70
2022/03/30 05:48:46;;;;;;;28.42;18.32;;;;;;;11.33;55.81;98983.15;1748348;82;21459;-69
2022/03/30 05:51:12;;;;;;;34.43;18.87;;;;;;;11.37;55.62;98977.24;1722275;82;21593;-69
2022/03/30 05:53:39;;;;;;;31.12;18.70;;;;;;;11.42;56.24;98979.97;1721190;82;21541;-70
2022/03/30 05:56:06;;;;;;;31.50;17.92;;;;;;;11.25;56.60;98984.05;1725837;83;22084;-70
2022/03/30 05:58:33;;;;;;;36.68;18.27;;;;;;;11.08;56.98;98975.34;1725844;83;21139;-70
2022/03/30 06:01:00;;;;;;;38.70;17.60;;;;;;;10.88;57.41;98982.20;1738070;81;21060;-69
2022/03/30 06:03:27;;;;;;;30.70;16.00;;;;;;;10.81;57.53;98982.17;1755967;81;21066;-69
2022/03/30 06:05:55;;;;;;;29.00;17.02;;;;;;;10.92;56.84;98981.94;1755783;81;21017;-70
2022/03/30 06:08:22;;;;;;;29.77;16.97;;;;;;;11.03;56.18;98978.70;1755854;81;21207;-69
2022/03/30 06:10:50;;;;;;;29.63;15.65;;;;;;;11.07;56.32;98983.34;1755800;81;21108;-69
2022/03/30 06:13:17;;;;;;;37.33;19.25;;;;;;;11.07;56.00;98975.45;1755785;81;21108;-69
2022/03/30 06:15:45;;;;;;;31.50;17.02;;;;;;;11.12;55.51;98983.45;1755662;81;21056;-70
2022/03/30 06:18:13;;;;;;;35.15;18.40;;;;;;;11.25;54.98;98982.73;1755865;81;20994;-69
2022/03/30 06:20:41;;;;;;;32.48;18.00;;;;;;;11.34;54.85;98983.52;1755907;81;21066;-70
2022/03/30 06:23:09;;;;;;;32.00;16.32;;;;;;;11.44;54.47;98992.59;1755963;81;21474;-70
2022/03/30 06:25:36;;;;;;;37.75;20.10;;;;;;;11.54;54.28;98988.47;1755942;81;21522;-70
2022/03/30 06:28:03;;;;;;;40.55;22.37;;;;;;;11.60;54.75;98986.43;1755823;81;21598;-69
2022/03/30 06:30:31;;;;;;;43.52;22.52;;;;;;;11.49;54.68;98992.33;1756268;81;21061;-69
2022/03/30 06:32:58;;;;;;;42.43;23.02;;;;;;;11.37;55.43;98988.63;1756018;81;21021;-69
2022/03/30 06:35:25;;;;;;;41.63;22.35;;;;;;;11.24;55.15;98989.80;1755747;81;21068;-69
2022/03/30 06:37:54;;;;;;;47.95;25.12;;;;;;;11.32;55.48;98986.73;1755645;81;21010;-70
2022/03/30 06:40:20;;;;;;;42.00;23.25;;;;;;;11.35;55.64;98985.23;1755976;81;21096;-70
2022/03/30 06:42:48;;;;;;;44.00;24.55;;;;;;;11.33;55.96;98984.47;1755894;81;21116;-70
2022/03/30 06:45:15;;;;;;;47.30;23.83;;;;;;;11.43;55.58;98984.29;1755977;81;21063;-70
2022/03/30 06:47:42;;;;;;;41.88;19.67;;;;;;;11.55;55.14;98982.27;1756050;81;21069;-69
2022/03/30 06:50:11;;;;;;;40.73;16.35;;;;;;;11.68;54.69;98985.01;1756063;81;21088;-69
2022/03/30 06:52:41;;;;;;;32.60;19.65;;;;;;;11.84;53.69;98983.62;1756209;81;21526;-69
2022/03/30 06:55:12;;;;;;;39.35;20.65;;;;;;;12.02;53.63;98978.21;1749528;81;21088;-70
2022/03/30 06:57:38;;;;;;;37.28;21.42;;;;;;;11.92;53.87;98980.09;1748098;81;21065;-70
2022/03/30 07:00:08;;;;;;;36.55;21.65;;;;;;;11.64;54.50;98982.64;1748149;82;21054;-69
2022/03/30 07:02:35;;;;;;;43.02;21.90;;;;;;;11.34;55.73;98986.15;1748053;82;21097;-70
2022/03/30 07:05:02;;;;;;;44.98;23.90;;;;;;;11.02;56.25;98983.61;1747858;82;22418;-69
2022/03/30 07:10:17;;;;;;;45.65;24.32;;;;;;;10.42;58.26;98990.02;1748084;82;21184;-70
2022/03/30 07:12:46;;;;;;;;;;;;;;;10.14;59.56;98983.59;1750692;81;21014;-69
2022/03/30 07:15:15;;;;;;;50.80;27.50;;;;;;;9.94;60.03;98991.69;1748352;82;20214;-70
2022/03/30 07:17:51;;;;;;;51.50;26.12;;;;;;;9.75;60.55;98987.86;1748224;81;20994;-69
2022/03/30 07:20:20;;;;;;;53.65;27.52;;;;;;;9.62;60.37;98996.86;1748545;81;21092;-69
2022/03/30 07:22:48;;;;;;;58.65;29.67;;;;;;;9.45;61.52;99007.77;1748557;81;21049;-69
2022/03/30 07:25:16;;;;;;;49.67;26.40;;;;;;;9.32;62.97;98998.79;1748162;82;21088;-70
2022/03/30 07:27:45;;;;;;;57.73;28.10;;;;;;;9.22;63.44;99006.72;1748050;81;21065;-68
2022/03/30 07:30:14;;;;;;;54.38;27.95;;;;;;;9.10;63.55;98999.45;1748159;81;21526;-69
2022/03/30 07:32:44;;;;;;;58.25;26.35;;;;;;;9.05;64.26;99004.93;1748090;82;21033;-69
2022/03/30 07:35:14;;;;;;;55.00;26.55;;;;;;;8.97;64.93;98997.44;1748291;82;21890;-70
2022/03/30 07:37:41;;;;;;;50.50;27.15;;;;;;;8.93;65.62;99002.45;1747803;81;21113;-69
2022/03/30 07:40:12;;;;;;;51.98;27.30;;;;;;;8.92;66.40;99001.20;1748112;82;21065;-71
2022/03/30 07:42:39;;;;;;;52.95;28.42;;;;;;;8.89;66.27;99006.60;1748017;81;21089;-70
2022/03/30 07:45:09;;;;;;;52.90;28.65;;;;;;;8.85;66.30;99003.73;1748409;82;21699;-69
2022/03/30 07:47:37;;;;;;;55.63;28.00;;;;;;;8.82;66.21;99002.11;1747978;81;21134;-69
2022/03/30 07:50:07;;;;;;;51.30;27.05;;;;;;;8.84;66.30;99005.52;1736177;82;21104;-70
2022/03/30 07:52:34;;;;;;;47.88;26.95;;;;;;;8.86;66.13;99001.04;1718370;83;21136;-69
2022/03/30 07:55:05;;;;;;;56.20;28.85;;;;;;;8.91;65.91;99003.45;1709484;83;21521;-69
2022/03/30 07:57:32;;;;;;;48.73;26.75;;;;;;;8.94;65.97;98998.88;1704695;84;21101;-70
2022/03/30 08:00:00;;;;;;;48.28;26.52;;;;;;;9.02;65.50;99002.00;1704714;84;21277;-69
2022/03/30 08:02:27;;;;;;;40.73;26.52;;;;;;;9.06;65.40;99001.84;1704739;84;21045;-70
2022/03/30 08:04:54;;;;;;;48.73;25.70;;;;;;;9.08;65.28;99005.24;1704761;84;21081;-69
2022/03/30 08:07:22;;;;;;;54.65;30.05;;;;;;;9.09;65.29;99005.17;1705143;84;21117;-70
2022/03/30 08:09:49;;;;;;;58.92;30.85;;;;;;;9.12;65.56;99004.17;1704757;84;21066;-69
2022/03/30 08:12:16;;;;;;;54.67;28.98;;;;;;;9.16;65.66;99007.05;1704519;84;21184;-71
2022/03/30 08:14:44;;;;;;;52.95;29.95;;;;;;;9.21;65.42;99007.66;1704503;83;21062;-70
2022/03/30 08:17:12;;;;;;;54.20;29.55;;;;;;;9.25;64.79;99001.34;1704752;84;21077;-68
2022/03/30 08:19:39;;;;;;;54.63;29.72;;;;;;;9.29;64.76;99009.43;1704517;84;21169;-69
2022/03/30 08:24:55;;;;;;;50.20;26.55;;;;;;;9.45;64.58;99011.70;1704606;83;21134;-69
2022/03/30 08:27:28;;;;;;;47.35;26.12;;;;;;;9.56;63.80;99015.09;1704562;83;20994;-71
2022/03/30 08:29:55;;;;;;;46.05;26.48;;;;;;;9.66;63.53;99015.46;1704617;84;21073;-69
2022/03/30 08:32:22;;;;;;;45.80;26.00;;;;;;;9.73;62.86;99017.31;1704551;83;21527;-69
2022/03/30 08:34:54;;;;;;;53.20;26.12;;;;;;;9.80;62.22;99018.26;1704514;84;21057;-70
2022/03/30 08:37:21;;;;;;;48.50;27.42;;;;;;;9.82;62.24;99013.77;1704799;84;21133;-69
2022/03/30 08:39:49;;;;;;;47.43;26.52;;;;;;;9.89;62.02;99020.85;1731438;82;21050;-70
2022/03/30 08:42:17;;;;;;;52.53;29.05;;;;;;;9.92;61.07;99019.88;1733898;82;21090;-70
2022/03/30 08:44:49;;;;;;;55.88;28.62;;;;;;;9.97;60.47;99023.11;1734094;82;21586;-70
2022/03/30 08:47:14;;;;;;;49.10;28.52;;;;;;;10.02;60.12;99023.70;1733312;82;21097;-70
2022/03/30 08:49:42;;;;;;;62.83;31.20;;;;;;;10.11;59.96;99023.22;1734059;82;21229;-69
2022/03/30 08:52:10;;;;;;;52.62;27.55;;;;;;;10.21;59.25;99025.73;1734246;82;21034;-70
2022/03/30 08:54:43;;;;;;;51.70;27.85;;;;;;;10.28;59.22;99019.28;1734118;81;21085;-69
2022/03/30 08:57:11;;;;;;;54.38;30.15;;;;;;;10.34;58.80;99022.50;1714194;82;21089;-69
2022/03/30 08:59:38;;;;;;;57.75;28.52;;;;;;;10.38;58.43;99017.47;1734346;82;21105;-69
2022/03/30 09:02:07;;;;;;;51.45;28.40;;;;;;;10.42;58.19;99018.98;1733937;82;21218;-69
2022/03/30 09:04:34;;;;;;;49.58;27.82;;;;;;;10.48;57.68;99021.29;1734223;82;21085;-69
2022/03/30 09:07:02;;;;;;;50.90;26.87;;;;;;;10.49;57.36;99018.58;1734046;82;21045;-69
2022/03/30 09:09:34;;;;;;;51.30;28.45;;;;;;;10.44;57.32;99018.43;1733991;82;21136;-70
2022/03/30 09:12:03;;;;;;;50.25;26.35;;;;;;;10.43;56.85;99015.43;1733851;82;21057;-69
2022/03/30 09:14:31;;;;;;;46.63;28.10;;;;;;;10.41;56.73;99011.55;1734097;82;21754;-70
2022/03/30 09:17:06;;;;;;;52.45;27.40;;;;;;;10.41;57.12;99013.34;1733823;82;21077;-70
2022/03/30 09:19:40;;;;;;;51.92;28.80;;;;;;;10.42;57.41;99011.08;1734240;82;21117;-69
2022/03/30 09:22:09;;;;;;;51.60;29.42;;;;;;;10.44;57.89;99007.91;1734063;82;21057;-69
2022/03/30 09:24:39;;;;;;;58.50;31.90;;;;;;;10.46;58.10;99016.09;1734320;82;21054;-70
2022/03/30 09:27:07;;;;;;;51.30;28.05;;;;;;;10.49;58.58;99017.27;1733960;82;21136;-70
2022/03/30 09:29:39;;;;;;;48.58;27.75;;;;;;;10.50;58.50;99018.11;1734244;82;21030;-70
2022/03/30 09:32:08;;;;;;;54.60;28.40;;;;;;;10.50;58.63;99018.11;1733905;82;21050;-69
2022/03/30 09:34:37;;;;;;;60.35;32.60;;;;;;;10.49;57.96;99011.16;1734537;82;21029;-69
2022/03/30 09:37:04;;;;;;;57.00;31.12;;;;;;;10.52;58.01;99014.93;1713306;82;21168;-69
2022/03/30 09:39:33;;;;;;;59.23;31.12;;;;;;;10.56;58.16;99012.52;1689839;82;21147;-69
2022/03/30 09:42:04;;;;;;;58.25;31.95;;;;;;;10.59;58.22;99012.34;1734264;82;21010;-70
2022/03/30 09:44:33;;;;;;;64.53;34.45;;;;;;;10.64;59.73;99019.52;1734539;82;21526;-70
2022/03/30 09:47:07;;;;;;;59.05;35.15;;;;;;;10.62;59.88;99021.84;1732404;82;21530;-69
2022/03/30 09:49:45;;;;;;;59.95;34.43;;;;;;;10.50;60.62;99021.58;1728589;82;21101;-69
2022/03/30 09:52:26;;;;;;;67.87;36.42;;;;;;;10.35;61.20;99024.19;1705195;84;21134;-70
2022/03/30 09:55:03;;;;;;;68.62;37.78;;;;;;;10.24;61.38;99022.12;1704794;83;21102;-70
2022/03/30 09:57:40;;;;;;;68.67;37.38;;;;;;;10.16;63.83;99023.83;1704665;83;21078;-70
2022/03/30 10:00:15;;;;;;;69.40;38.10;;;;;;;10.07;65.25;99030.88;1704747;83;21049;-70
2022/03/30 10:02:48;;;;;;;69.62;36.53;;;;;;;9.96;65.16;99028.84;1704629;83;21058;-70
2022/03/30 10:05:17;;;;;;;71.25;38.67;;;;;;;9.91;66.37;99032.62;1702729;84;21998;-69
2022/03/30 10:07:45;;;;;;;65.40;35.78;;;;;;;9.87;67.22;99022.27;1704809;84;21034;-70
2022/03/30 10:10:14;;;;;;;69.55;37.33;;;;;;;9.83;68.14;99023.34;1705096;84;20998;-70
2022/03/30 10:12:41;;;;;;;63.42;35.10;;;;;;;9.84;68.14;99028.14;1704590;84;21095;-69
2022/03/30 10:15:11;;;;;;;70.03;36.85;;;;;;;9.81;68.55;99033.09;1704749;84;21109;-70
2022/03/30 10:17:38;;;;;;;59.45;33.63;;;;;;;9.71;68.67;99037.14;1704904;84;21292;-70
2022/03/30 10:20:07;;;;;;;73.28;36.58;;;;;;;9.61;69.11;99034.56;1704826;84;21045;-69
2022/03/30 10:23:00;;;;;;;74.20;35.63;;;;;;;9.56;70.14;99037.90;1705343;84;21077;-70
2022/03/30 10:25:52;;;;;;;68.42;36.80;;;;;;;9.54;70.37;99037.97;1704622;83;21537;-69
2022/03/30 10:28:45;;;;;;;63.05;36.38;;;;;;;9.52;71.95;99039.81;1704831;84;21107;-69
2022/03/30 10:31:12;;;;;;;62.78;33.38;;;;;;;9.48;72.30;99034.79;1704705;84;22067;-70
2022/03/30 10:33:42;;;;;;;57.45;31.45;;;;;;;9.49;73.05;99032.56;1704708;84;21483;-69
2022/03/30 10:36:32;;;;;;;57.78;31.02;;;;;;;9.47;73.28;99031.79;1704704;83;21109;-71
2022/03/30 10:39:17;;;;;;;58.63;33.28;;;;;;;9.48;72.52;99036.11;1704748;83;21058;-70
2022/03/30 10:42:08;;;;;;;60.33;33.85;;;;;;;9.40;73.53;99036.03;1704608;83;22024;-69
2022/03/30 10:44:51;;;;;;;67.17;33.92;;;;;;;9.38;74.75;99027.36;1705252;84;21228;-69
2022/03/30 10:47:24;;;;;;;57.20;31.40;;;;;;;9.39;75.49;99031.71;1704694;84;21066;-70
2022/03/30 10:49:55;;;;;;;49.88;30.80;;;;;;;9.39;75.70;99034.34;1704794;84;21085;-70
2022/03/30 10:52:39;;;;;;;51.90;29.77;;;;;;;9.35;76.52;99040.66;1704852;84;21018;-70
2022/03/30 10:55:21;;;;;;;49.77;27.90;;;;;;;9.37;76.45;99030.94;1704914;83;21093;-69
2022/03/30 10:57:58;;;;;;;53.28;28.47;;;;;;;9.39;75.49;99026.45;1704726;84;21272;-70
2022/03/30 11:00:34;;;;;;;48.55;29.40;;;;;;;9.36;77.28;99029.25;1704783;83;21069;-71
2022/03/30 11:03:21;;;;;;;51.00;28.55;;;;;;;9.32;77.78;99026.84;1704697;84;21002;-70
2022/03/30 11:06:00;;;;;;;50.65;28.55;;;;;;;9.32;78.17;99026.37;1705023;84;21010;-70
2022/03/30 11:09:49;;;;;;;48.73;27.10;;;;;;;9.31;78.66;99025.97;1804282;78;28074;-69
2022/03/30 11:12:18;;;;;;;;;;;;;;;9.23;78.80;99022.89;1736283;80;21068;-69
2022/03/30 11:15:01;;;;;;;45.98;25.23;;;;;;;9.20;78.60;99025.64;1759085;80;20184;-69
2022/03/30 11:17:34;;;;;;;44.42;26.62;;;;;;;9.17;79.12;99028.43;1763776;79;20997;-70
2022/03/30 11:20:05;;;;;;;49.98;27.35;;;;;;;9.16;79.24;99026.75;1768507;79;21095;-70
2022/03/30 11:22:36;;;;;;;45.78;27.22;;;;;;;9.17;79.86;99025.81;1774275;80;21101;-70
2022/03/30 11:25:17;;;;;;;43.52;24.37;;;;;;;9.19;80.12;99017.39;1771069;79;21561;-70
2022/03/30 11:27:45;;;;;;;46.68;27.85;;;;;;;9.22;79.76;99019.42;1764787;79;21318;-70
2022/03/30 11:30:17;;;;;;;48.23;26.50;;;;;;;9.18;79.57;99024.43;1779594;79;21035;-70
2022/03/30 11:32:54;;;;;;;52.38;29.87;;;;;;;9.17;80.00;99019.23;1763822;79;21605;-69
2022/03/30 11:35:25;;;;;;;51.60;29.70;;;;;;;9.15;80.24;99017.15;1768449;79;21579;-70
2022/03/30 11:38:24;;;;;;;51.18;29.45;;;;;;;9.22;81.52;99018.55;1749737;80;21067;-70
2022/03/30 11:40:50;;;;;;;47.25;27.37;;;;;;;9.26;80.96;99020.10;1713096;81;21283;-70
2022/03/30 11:43:19;;;;;;;49.18;28.67;;;;;;;9.32;81.40;99021.12;1748684;80;21103;-71